sensor_id;sensor_type;location;lat;lon;timestamp;P1;durP1;ratioP1;P2;durP2;ratioP2
14736;SDS011;7459;53.590;10.062;2023-03-01T00:01:10;13.43;;;6.63;;
14736;SDS011;7459;53.590;10.062;2023-03-01T00:03:39;11.45;;;5.25;;
14736;SDS011;7459;53.590;10.062;2023-03-01T00:06:05;14.17;;;6.00;;
14736;SDS011;7459;53.590;10.062;2023-03-01T00:08:31;10.60;;;5.10;;
14736;SDS011;7459;53.590;10.062;2023-03-01T00:11:04;12.93;;;5.75;;
14736;SDS011;7459;53.590;10.062;2023-03-01T00:13:39;15.95;;;5.20;;
14736;SDS011;7459;53.590;10.062;2023-03-01T00:16:06;12.52;;;5.13;;
14736;SDS011;7459;53.590;10.062;2023-03-01T00:18:35;11.40;;;5.07;;
14736;SDS011;7459;53.590;10.062;2023-03-01T00:21:00;13.25;;;6.15;;
14736;SDS011;7459;53.590;10.062;2023-03-01T00:23:26;14.33;;;5.27;;
14736;SDS011;7459;53.590;10.062;2023-03-01T00:25:52;14.98;;;5.47;;
14736;SDS011;7459;53.590;10.062;2023-03-01T00:28:18;12.63;;;5.60;;
14736;SDS011;7459;53.590;10.062;2023-03-01T00:30:45;14.85;;;5.47;;
14736;SDS011;7459;53.590;10.062;2023-03-01T00:33:11;14.68;;;5.85;;
14736;SDS011;7459;53.590;10.062;2023-03-01T00:35:38;13.85;;;5.65;;
14736;SDS011;7459;53.590;10.062;2023-03-01T00:38:04;11.60;;;5.60;;
14736;SDS011;7459;53.590;10.062;2023-03-01T00:40:31;13.25;;;4.82;;
14736;SDS011;7459;53.590;10.062;2023-03-01T00:42:59;11.65;;;5.20;;
14736;SDS011;7459;53.590;10.062;2023-03-01T00:45:25;14.82;;;5.07;;
14736;SDS011;7459;53.590;10.062;2023-03-01T00:47:51;13.40;;;5.47;;
14736;SDS011;7459;53.590;10.062;2023-03-01T00:50:17;11.38;;;4.90;;
14736;SDS011;7459;53.590;10.062;2023-03-01T00:52:43;11.77;;;4.97;;
14736;SDS011;7459;53.590;10.062;2023-03-01T00:55:10;12.18;;;5.00;;
14736;SDS011;7459;53.590;10.062;2023-03-01T00:57:36;14.95;;;4.85;;
14736;SDS011;7459;53.590;10.062;2023-03-01T01:00:04;11.55;;;5.63;;
14736;SDS011;7459;53.590;10.062;2023-03-01T01:02:33;10.60;;;4.40;;
14736;SDS011;7459;53.590;10.062;2023-03-01T01:04:59;12.30;;;4.85;;
14736;SDS011;7459;53.590;10.062;2023-03-01T01:07:25;13.40;;;5.25;;
14736;SDS011;7459;53.590;10.062;2023-03-01T01:09:51;13.10;;;4.72;;
14736;SDS011;7459;53.590;10.062;2023-03-01T01:12:17;15.63;;;5.10;;
14736;SDS011;7459;53.590;10.062;2023-03-01T01:14:42;10.47;;;4.60;;
14736;SDS011;7459;53.590;10.062;2023-03-01T01:17:08;10.82;;;5.18;;
14736;SDS011;7459;53.590;10.062;2023-03-01T01:19:34;11.30;;;5.55;;
14736;SDS011;7459;53.590;10.062;2023-03-01T01:22:00;15.00;;;4.87;;
14736;SDS011;7459;53.590;10.062;2023-03-01T01:24:26;16.83;;;5.75;;
14736;SDS011;7459;53.590;10.062;2023-03-01T01:26:51;14.47;;;4.70;;
14736;SDS011;7459;53.590;10.062;2023-03-01T01:29:17;15.13;;;5.30;;
14736;SDS011;7459;53.590;10.062;2023-03-01T01:31:43;15.43;;;5.47;;
14736;SDS011;7459;53.590;10.062;2023-03-01T01:34:12;10.45;;;5.25;;
14736;SDS011;7459;53.590;10.062;2023-03-01T01:36:41;13.57;;;5.07;;
14736;SDS011;7459;53.590;10.062;2023-03-01T01:39:07;12.50;;;5.70;;
14736;SDS011;7459;53.590;10.062;2023-03-01T01:41:38;11.87;;;5.30;;
14736;SDS011;7459;53.590;10.062;2023-03-01T01:44:11;13.38;;;5.50;;
14736;SDS011;7459;53.590;10.062;2023-03-01T01:46:43;12.20;;;5.85;;
14736;SDS011;7459;53.590;10.062;2023-03-01T01:52:00;13.95;;;5.63;;
14736;SDS011;7459;53.590;10.062;2023-03-01T01:57:41;10.80;;;4.18;;
14736;SDS011;7459;53.590;10.062;2023-03-01T02:00:12;12.93;;;5.57;;
14736;SDS011;7459;53.590;10.062;2023-03-01T02:03:03;13.77;;;4.95;;
14736;SDS011;7459;53.590;10.062;2023-03-01T02:05:50;12.07;;;5.55;;
14736;SDS011;7459;53.590;10.062;2023-03-01T02:08:44;12.97;;;5.37;;
14736;SDS011;7459;53.590;10.062;2023-03-01T02:11:12;12.60;;;5.53;;
14736;SDS011;7459;53.590;10.062;2023-03-01T02:13:42;12.38;;;5.20;;
14736;SDS011;7459;53.590;10.062;2023-03-01T02:16:08;9.63;;;4.78;;
14736;SDS011;7459;53.590;10.062;2023-03-01T02:18:37;14.53;;;5.03;;
14736;SDS011;7459;53.590;10.062;2023-03-01T02:21:08;14.20;;;5.15;;
14736;SDS011;7459;53.590;10.062;2023-03-01T02:23:41;11.20;;;5.45;;
14736;SDS011;7459;53.590;10.062;2023-03-01T02:29:13;15.17;;;5.40;;
14736;SDS011;7459;53.590;10.062;2023-03-01T02:31:38;12.15;;;5.53;;
14736;SDS011;7459;53.590;10.062;2023-03-01T02:34:08;13.50;;;5.45;;
14736;SDS011;7459;53.590;10.062;2023-03-01T02:36:39;11.60;;;5.45;;
14736;SDS011;7459;53.590;10.062;2023-03-01T02:39:11;9.93;;;4.57;;
14736;SDS011;7459;53.590;10.062;2023-03-01T02:41:53;14.35;;;4.93;;
14736;SDS011;7459;53.590;10.062;2023-03-01T02:44:21;11.00;;;5.45;;
14736;SDS011;7459;53.590;10.062;2023-03-01T02:46:48;14.35;;;5.50;;
14736;SDS011;7459;53.590;10.062;2023-03-01T02:49:18;10.93;;;5.40;;
14736;SDS011;7459;53.590;10.062;2023-03-01T02:54:46;13.57;;;5.50;;
14736;SDS011;7459;53.590;10.062;2023-03-01T02:57:18;14.80;;;5.20;;
14736;SDS011;7459;53.590;10.062;2023-03-01T02:59:46;15.27;;;5.32;;
14736;SDS011;7459;53.590;10.062;2023-03-01T03:02:21;11.90;;;4.97;;
14736;SDS011;7459;53.590;10.062;2023-03-01T03:05:13;15.52;;;6.00;;
14736;SDS011;7459;53.590;10.062;2023-03-01T03:07:45;13.23;;;4.85;;
14736;SDS011;7459;53.590;10.062;2023-03-01T03:10:18;13.98;;;5.30;;
14736;SDS011;7459;53.590;10.062;2023-03-01T03:12:55;14.05;;;5.03;;
14736;SDS011;7459;53.590;10.062;2023-03-01T03:15:28;12.13;;;5.20;;
14736;SDS011;7459;53.590;10.062;2023-03-01T03:17:54;11.80;;;5.25;;
14736;SDS011;7459;53.590;10.062;2023-03-01T03:20:23;10.90;;;5.65;;
14736;SDS011;7459;53.590;10.062;2023-03-01T03:22:52;14.05;;;4.70;;
14736;SDS011;7459;53.590;10.062;2023-03-01T03:25:21;12.00;;;4.65;;
14736;SDS011;7459;53.590;10.062;2023-03-01T03:27:48;12.43;;;5.43;;
14736;SDS011;7459;53.590;10.062;2023-03-01T03:30:21;13.00;;;4.93;;
14736;SDS011;7459;53.590;10.062;2023-03-01T03:32:53;10.77;;;4.60;;
14736;SDS011;7459;53.590;10.062;2023-03-01T03:35:21;10.88;;;4.75;;
14736;SDS011;7459;53.590;10.062;2023-03-01T03:38:08;12.80;;;4.97;;
14736;SDS011;7459;53.590;10.062;2023-03-01T03:40:41;13.10;;;4.88;;
14736;SDS011;7459;53.590;10.062;2023-03-01T03:43:13;16.40;;;7.13;;
14736;SDS011;7459;53.590;10.062;2023-03-01T03:45:43;16.13;;;6.10;;
14736;SDS011;7459;53.590;10.062;2023-03-01T03:48:10;16.83;;;6.53;;
14736;SDS011;7459;53.590;10.062;2023-03-01T03:50:37;16.75;;;5.97;;
14736;SDS011;7459;53.590;10.062;2023-03-01T03:53:05;16.83;;;6.03;;
14736;SDS011;7459;53.590;10.062;2023-03-01T03:55:35;14.57;;;5.60;;
14736;SDS011;7459;53.590;10.062;2023-03-01T03:58:04;11.98;;;5.35;;
14736;SDS011;7459;53.590;10.062;2023-03-01T04:00:38;13.38;;;5.18;;
14736;SDS011;7459;53.590;10.062;2023-03-01T04:03:09;13.07;;;5.50;;
14736;SDS011;7459;53.590;10.062;2023-03-01T04:05:37;12.83;;;5.30;;
14736;SDS011;7459;53.590;10.062;2023-03-01T04:08:05;14.07;;;5.03;;
14736;SDS011;7459;53.590;10.062;2023-03-01T04:10:41;14.80;;;6.93;;
14736;SDS011;7459;53.590;10.062;2023-03-01T04:13:10;13.13;;;6.65;;
14736;SDS011;7459;53.590;10.062;2023-03-01T04:15:39;18.45;;;7.63;;
14736;SDS011;7459;53.590;10.062;2023-03-01T04:18:05;14.07;;;6.03;;
14736;SDS011;7459;53.590;10.062;2023-03-01T04:20:32;10.27;;;4.90;;
14736;SDS011;7459;53.590;10.062;2023-03-01T04:23:21;10.95;;;6.20;;
14736;SDS011;7459;53.590;10.062;2023-03-01T04:25:50;16.20;;;5.63;;
14736;SDS011;7459;53.590;10.062;2023-03-01T04:31:01;12.77;;;5.63;;
14736;SDS011;7459;53.590;10.062;2023-03-01T04:33:41;14.10;;;5.25;;
14736;SDS011;7459;53.590;10.062;2023-03-01T04:36:13;11.70;;;5.47;;
14736;SDS011;7459;53.590;10.062;2023-03-01T04:38:41;10.85;;;4.28;;
14736;SDS011;7459;53.590;10.062;2023-03-01T04:41:12;11.40;;;5.18;;
14736;SDS011;7459;53.590;10.062;2023-03-01T04:43:39;13.53;;;5.47;;
14736;SDS011;7459;53.590;10.062;2023-03-01T04:46:06;9.35;;;5.20;;
14736;SDS011;7459;53.590;10.062;2023-03-01T04:48:37;8.25;;;4.30;;
14736;SDS011;7459;53.590;10.062;2023-03-01T04:51:05;14.63;;;4.32;;
14736;SDS011;7459;53.590;10.062;2023-03-01T04:53:31;12.30;;;4.37;;
14736;SDS011;7459;53.590;10.062;2023-03-01T04:55:58;9.95;;;4.82;;
14736;SDS011;7459;53.590;10.062;2023-03-01T04:58:24;14.13;;;5.55;;
14736;SDS011;7459;53.590;10.062;2023-03-01T05:00:52;14.30;;;5.47;;
14736;SDS011;7459;53.590;10.062;2023-03-01T05:03:18;10.27;;;4.65;;
14736;SDS011;7459;53.590;10.062;2023-03-01T05:05:46;11.70;;;5.07;;
14736;SDS011;7459;53.590;10.062;2023-03-01T05:08:14;13.07;;;4.85;;
14736;SDS011;7459;53.590;10.062;2023-03-01T05:10:50;10.05;;;5.13;;
14736;SDS011;7459;53.590;10.062;2023-03-01T05:13:17;12.05;;;5.50;;
14736;SDS011;7459;53.590;10.062;2023-03-01T05:15:48;11.23;;;5.28;;
14736;SDS011;7459;53.590;10.062;2023-03-01T05:18:23;10.03;;;4.27;;
14736;SDS011;7459;53.590;10.062;2023-03-01T05:20:53;7.00;;;3.63;;
14736;SDS011;7459;53.590;10.062;2023-03-01T05:23:23;8.55;;;3.65;;
14736;SDS011;7459;53.590;10.062;2023-03-01T05:25:49;9.07;;;3.35;;
14736;SDS011;7459;53.590;10.062;2023-03-01T05:28:17;6.53;;;3.03;;
14736;SDS011;7459;53.590;10.062;2023-03-01T05:30:45;9.00;;;2.67;;
14736;SDS011;7459;53.590;10.062;2023-03-01T05:33:12;6.88;;;3.22;;
14736;SDS011;7459;53.590;10.062;2023-03-01T05:35:43;6.78;;;3.13;;
14736;SDS011;7459;53.590;10.062;2023-03-01T05:38:11;6.93;;;3.20;;
14736;SDS011;7459;53.590;10.062;2023-03-01T05:40:41;9.05;;;3.67;;
14736;SDS011;7459;53.590;10.062;2023-03-01T05:43:09;7.30;;;3.17;;
14736;SDS011;7459;53.590;10.062;2023-03-01T05:45:36;11.50;;;4.18;;
14736;SDS011;7459;53.590;10.062;2023-03-01T05:48:05;8.85;;;3.78;;
14736;SDS011;7459;53.590;10.062;2023-03-01T05:50:33;8.90;;;3.80;;
14736;SDS011;7459;53.590;10.062;2023-03-01T05:53:06;8.27;;;3.80;;
14736;SDS011;7459;53.590;10.062;2023-03-01T05:55:41;9.70;;;3.50;;
14736;SDS011;7459;53.590;10.062;2023-03-01T05:58:09;11.57;;;4.15;;
14736;SDS011;7459;53.590;10.062;2023-03-01T06:00:38;8.18;;;4.00;;
14736;SDS011;7459;53.590;10.062;2023-03-01T06:03:05;11.65;;;4.88;;
14736;SDS011;7459;53.590;10.062;2023-03-01T06:05:30;12.20;;;5.70;;
14736;SDS011;7459;53.590;10.062;2023-03-01T06:07:59;13.65;;;6.00;;
14736;SDS011;7459;53.590;10.062;2023-03-01T06:10:25;11.13;;;5.43;;
14736;SDS011;7459;53.590;10.062;2023-03-01T06:12:51;11.33;;;5.03;;
14736;SDS011;7459;53.590;10.062;2023-03-01T06:15:17;14.27;;;4.78;;
14736;SDS011;7459;53.590;10.062;2023-03-01T06:17:44;11.40;;;5.47;;
14736;SDS011;7459;53.590;10.062;2023-03-01T06:20:15;11.35;;;5.28;;
14736;SDS011;7459;53.590;10.062;2023-03-01T06:22:47;12.38;;;4.95;;
14736;SDS011;7459;53.590;10.062;2023-03-01T06:25:15;11.90;;;4.65;;
14736;SDS011;7459;53.590;10.062;2023-03-01T06:27:45;13.18;;;5.45;;
14736;SDS011;7459;53.590;10.062;2023-03-01T06:30:12;11.73;;;5.40;;
14736;SDS011;7459;53.590;10.062;2023-03-01T06:32:40;12.73;;;5.30;;
14736;SDS011;7459;53.590;10.062;2023-03-01T06:35:10;10.73;;;4.45;;
14736;SDS011;7459;53.590;10.062;2023-03-01T06:37:37;12.82;;;4.40;;
14736;SDS011;7459;53.590;10.062;2023-03-01T06:40:04;12.70;;;4.50;;
14736;SDS011;7459;53.590;10.062;2023-03-01T06:42:33;12.38;;;4.35;;
14736;SDS011;7459;53.590;10.062;2023-03-01T06:45:00;9.27;;;4.18;;
14736;SDS011;7459;53.590;10.062;2023-03-01T06:47:26;12.20;;;4.35;;
14736;SDS011;7459;53.590;10.062;2023-03-01T06:49:52;10.98;;;4.43;;
14736;SDS011;7459;53.590;10.062;2023-03-01T06:52:18;7.57;;;3.80;;
14736;SDS011;7459;53.590;10.062;2023-03-01T06:54:43;7.70;;;3.85;;
14736;SDS011;7459;53.590;10.062;2023-03-01T06:57:09;8.17;;;3.47;;
14736;SDS011;7459;53.590;10.062;2023-03-01T06:59:35;8.20;;;3.92;;
14736;SDS011;7459;53.590;10.062;2023-03-01T07:02:00;11.07;;;3.70;;
14736;SDS011;7459;53.590;10.062;2023-03-01T07:04:26;12.75;;;3.80;;
14736;SDS011;7459;53.590;10.062;2023-03-01T07:06:53;10.80;;;3.25;;
14736;SDS011;7459;53.590;10.062;2023-03-01T07:09:20;11.23;;;3.72;;
14736;SDS011;7459;53.590;10.062;2023-03-01T07:11:48;10.45;;;3.80;;
14736;SDS011;7459;53.590;10.062;2023-03-01T07:14:14;11.77;;;3.45;;
14736;SDS011;7459;53.590;10.062;2023-03-01T07:16:40;8.52;;;3.50;;
14736;SDS011;7459;53.590;10.062;2023-03-01T07:19:05;10.77;;;3.72;;
14736;SDS011;7459;53.590;10.062;2023-03-01T07:21:31;10.03;;;4.20;;
14736;SDS011;7459;53.590;10.062;2023-03-01T07:23:57;8.20;;;3.90;;
14736;SDS011;7459;53.590;10.062;2023-03-01T07:26:22;11.13;;;5.07;;
14736;SDS011;7459;53.590;10.062;2023-03-01T07:28:48;8.30;;;4.25;;
14736;SDS011;7459;53.590;10.062;2023-03-01T07:31:14;9.83;;;3.80;;
14736;SDS011;7459;53.590;10.062;2023-03-01T07:33:40;10.52;;;4.40;;
14736;SDS011;7459;53.590;10.062;2023-03-01T07:36:06;11.93;;;4.77;;
14736;SDS011;7459;53.590;10.062;2023-03-01T07:38:32;10.30;;;4.93;;
14736;SDS011;7459;53.590;10.062;2023-03-01T07:40:59;11.40;;;4.75;;
14736;SDS011;7459;53.590;10.062;2023-03-01T07:43:27;9.85;;;4.18;;
14736;SDS011;7459;53.590;10.062;2023-03-01T07:45:54;11.40;;;4.85;;
14736;SDS011;7459;53.590;10.062;2023-03-01T07:48:23;10.93;;;4.65;;
14736;SDS011;7459;53.590;10.062;2023-03-01T07:50:49;10.93;;;5.00;;
14736;SDS011;7459;53.590;10.062;2023-03-01T07:53:14;10.90;;;5.33;;
14736;SDS011;7459;53.590;10.062;2023-03-01T07:55:40;11.02;;;5.60;;
14736;SDS011;7459;53.590;10.062;2023-03-01T07:58:06;15.93;;;6.33;;
14736;SDS011;7459;53.590;10.062;2023-03-01T08:00:31;11.65;;;5.95;;
14736;SDS011;7459;53.590;10.062;2023-03-01T08:03:00;14.75;;;6.13;;
14736;SDS011;7459;53.590;10.062;2023-03-01T08:05:27;13.15;;;6.50;;
14736;SDS011;7459;53.590;10.062;2023-03-01T08:07:53;15.45;;;7.45;;
14736;SDS011;7459;53.590;10.062;2023-03-01T08:10:19;13.68;;;6.72;;
14736;SDS011;7459;53.590;10.062;2023-03-01T08:12:45;12.38;;;6.30;;
14736;SDS011;7459;53.590;10.062;2023-03-01T08:15:11;13.88;;;6.85;;
14736;SDS011;7459;53.590;10.062;2023-03-01T08:17:37;18.33;;;6.88;;
14736;SDS011;7459;53.590;10.062;2023-03-01T08:20:03;13.30;;;6.95;;
14736;SDS011;7459;53.590;10.062;2023-03-01T08:22:31;15.07;;;7.63;;
14736;SDS011;7459;53.590;10.062;2023-03-01T08:24:56;15.85;;;7.05;;
14736;SDS011;7459;53.590;10.062;2023-03-01T08:27:22;15.53;;;7.90;;
14736;SDS011;7459;53.590;10.062;2023-03-01T08:29:48;15.57;;;7.68;;
14736;SDS011;7459;53.590;10.062;2023-03-01T08:32:13;15.57;;;8.20;;
14736;SDS011;7459;53.590;10.062;2023-03-01T08:34:39;15.30;;;7.80;;
14736;SDS011;7459;53.590;10.062;2023-03-01T08:37:05;15.47;;;8.30;;
14736;SDS011;7459;53.590;10.062;2023-03-01T08:39:30;18.38;;;8.52;;
14736;SDS011;7459;53.590;10.062;2023-03-01T08:41:56;17.70;;;8.50;;
14736;SDS011;7459;53.590;10.062;2023-03-01T08:44:22;16.45;;;8.77;;
14736;SDS011;7459;53.590;10.062;2023-03-01T08:46:48;18.70;;;8.83;;
14736;SDS011;7459;53.590;10.062;2023-03-01T08:49:16;18.63;;;9.18;;
14736;SDS011;7459;53.590;10.062;2023-03-01T08:51:44;18.33;;;9.27;;
14736;SDS011;7459;53.590;10.062;2023-03-01T08:54:12;17.65;;;9.55;;
14736;SDS011;7459;53.590;10.062;2023-03-01T08:56:41;19.13;;;9.83;;
14736;SDS011;7459;53.590;10.062;2023-03-01T08:59:07;18.60;;;9.70;;
14736;SDS011;7459;53.590;10.062;2023-03-01T09:01:35;17.75;;;9.48;;
14736;SDS011;7459;53.590;10.062;2023-03-01T09:04:02;18.98;;;8.77;;
14736;SDS011;7459;53.590;10.062;2023-03-01T09:06:32;18.00;;;10.15;;
14736;SDS011;7459;53.590;10.062;2023-03-01T09:08:59;19.07;;;9.27;;
14736;SDS011;7459;53.590;10.062;2023-03-01T09:11:24;18.00;;;8.82;;
14736;SDS011;7459;53.590;10.062;2023-03-01T09:13:50;18.25;;;9.30;;
14736;SDS011;7459;53.590;10.062;2023-03-01T09:16:17;19.73;;;9.20;;
14736;SDS011;7459;53.590;10.062;2023-03-01T09:18:48;18.35;;;9.50;;
14736;SDS011;7459;53.590;10.062;2023-03-01T09:21:16;24.05;;;9.25;;
14736;SDS011;7459;53.590;10.062;2023-03-01T09:23:44;17.05;;;8.75;;
14736;SDS011;7459;53.590;10.062;2023-03-01T09:26:12;19.93;;;9.23;;
14736;SDS011;7459;53.590;10.062;2023-03-01T09:28:44;18.17;;;8.70;;
14736;SDS011;7459;53.590;10.062;2023-03-01T09:31:11;15.93;;;8.13;;
14736;SDS011;7459;53.590;10.062;2023-03-01T09:33:39;19.05;;;9.18;;
14736;SDS011;7459;53.590;10.062;2023-03-01T09:36:07;19.60;;;9.40;;
14736;SDS011;7459;53.590;10.062;2023-03-01T09:38:37;21.10;;;8.83;;
14736;SDS011;7459;53.590;10.062;2023-03-01T09:41:08;16.65;;;8.60;;
14736;SDS011;7459;53.590;10.062;2023-03-01T09:43:56;14.40;;;8.02;;
14736;SDS011;7459;53.590;10.062;2023-03-01T09:46:29;17.85;;;8.75;;
14736;SDS011;7459;53.590;10.062;2023-03-01T09:49:05;17.77;;;8.38;;
14736;SDS011;7459;53.590;10.062;2023-03-01T09:51:41;18.20;;;8.77;;
14736;SDS011;7459;53.590;10.062;2023-03-01T09:54:15;17.38;;;8.00;;
14736;SDS011;7459;53.590;10.062;2023-03-01T09:56:41;17.57;;;8.93;;
14736;SDS011;7459;53.590;10.062;2023-03-01T09:59:25;18.70;;;7.43;;
14736;SDS011;7459;53.590;10.062;2023-03-01T10:02:21;16.08;;;7.63;;
14736;SDS011;7459;53.590;10.062;2023-03-01T10:04:58;17.20;;;7.30;;
14736;SDS011;7459;53.590;10.062;2023-03-01T10:10:10;17.53;;;7.73;;
14736;SDS011;7459;53.590;10.062;2023-03-01T10:13:45;16.20;;;7.55;;
14736;SDS011;7459;53.590;10.062;2023-03-01T10:22:21;16.80;;;7.38;;
14736;SDS011;7459;53.590;10.062;2023-03-01T10:24:53;16.37;;;7.00;;
14736;SDS011;7459;53.590;10.062;2023-03-01T10:27:24;15.45;;;7.47;;
14736;SDS011;7459;53.590;10.062;2023-03-01T10:30:39;16.58;;;7.82;;
14736;SDS011;7459;53.590;10.062;2023-03-01T10:35:49;17.80;;;8.18;;
14736;SDS011;7459;53.590;10.062;2023-03-01T10:38:15;17.93;;;7.10;;
14736;SDS011;7459;53.590;10.062;2023-03-01T10:43:22;16.02;;;7.82;;
14736;SDS011;7459;53.590;10.062;2023-03-01T10:45:49;16.17;;;7.47;;
14736;SDS011;7459;53.590;10.062;2023-03-01T10:48:17;14.20;;;6.95;;
14736;SDS011;7459;53.590;10.062;2023-03-01T10:53:25;14.57;;;6.75;;
14736;SDS011;7459;53.590;10.062;2023-03-01T10:56:03;15.13;;;7.15;;
14736;SDS011;7459;53.590;10.062;2023-03-01T10:58:35;15.52;;;7.07;;
14736;SDS011;7459;53.590;10.062;2023-03-01T11:01:05;12.32;;;6.57;;
14736;SDS011;7459;53.590;10.062;2023-03-01T11:04:08;16.00;;;6.80;;
14736;SDS011;7459;53.590;10.062;2023-03-01T11:06:38;14.52;;;6.68;;
14736;SDS011;7459;53.590;10.062;2023-03-01T11:09:18;12.63;;;6.28;;
14736;SDS011;7459;53.590;10.062;2023-03-01T11:11:52;14.63;;;6.45;;
14736;SDS011;7459;53.590;10.062;2023-03-01T11:14:24;13.65;;;7.18;;
14736;SDS011;7459;53.590;10.062;2023-03-01T11:17:02;17.63;;;6.27;;
14736;SDS011;7459;53.590;10.062;2023-03-01T11:19:29;13.43;;;5.70;;
14736;SDS011;7459;53.590;10.062;2023-03-01T11:24:27;15.95;;;6.13;;
14736;SDS011;7459;53.590;10.062;2023-03-01T11:27:14;15.75;;;6.78;;
14736;SDS011;7459;53.590;10.062;2023-03-01T11:29:52;12.23;;;5.77;;
14736;SDS011;7459;53.590;10.062;2023-03-01T11:32:31;12.35;;;6.07;;
14736;SDS011;7459;53.590;10.062;2023-03-01T11:35:18;13.63;;;5.85;;
14736;SDS011;7459;53.590;10.062;2023-03-01T11:40:43;10.45;;;4.35;;
14736;SDS011;7459;53.590;10.062;2023-03-01T11:46:43;12.48;;;5.45;;
14736;SDS011;7459;53.590;10.062;2023-03-01T11:49:43;12.48;;;5.78;;
14736;SDS011;7459;53.590;10.062;2023-03-01T11:58:46;10.27;;;4.80;;
14736;SDS011;7459;53.590;10.062;2023-03-01T12:19:14;8.32;;;3.70;;
14736;SDS011;7459;53.590;10.062;2023-03-01T12:33:29;11.55;;;3.80;;
14736;SDS011;7459;53.590;10.062;2023-03-01T12:36:15;8.90;;;3.97;;
14736;SDS011;7459;53.590;10.062;2023-03-01T12:42:03;10.83;;;3.93;;
14736;SDS011;7459;53.590;10.062;2023-03-01T12:45:07;8.20;;;3.90;;
14736;SDS011;7459;53.590;10.062;2023-03-01T12:48:15;11.13;;;4.15;;
14736;SDS011;7459;53.590;10.062;2023-03-01T12:51:06;10.15;;;3.92;;
14736;SDS011;7459;53.590;10.062;2023-03-01T12:53:40;9.98;;;4.40;;
14736;SDS011;7459;53.590;10.062;2023-03-01T12:56:17;12.20;;;4.17;;
14736;SDS011;7459;53.590;10.062;2023-03-01T13:04:54;8.63;;;4.07;;
14736;SDS011;7459;53.590;10.062;2023-03-01T13:07:49;9.27;;;4.13;;
14736;SDS011;7459;53.590;10.062;2023-03-01T13:10:49;12.27;;;3.83;;
14736;SDS011;7459;53.590;10.062;2023-03-01T13:13:22;8.80;;;3.85;;
14736;SDS011;7459;53.590;10.062;2023-03-01T13:15:50;9.50;;;4.13;;
14736;SDS011;7459;53.590;10.062;2023-03-01T13:31:02;10.80;;;4.22;;
14736;SDS011;7459;53.590;10.062;2023-03-01T13:33:38;8.77;;;3.92;;
14736;SDS011;7459;53.590;10.062;2023-03-01T13:44:21;7.10;;;3.38;;
14736;SDS011;7459;53.590;10.062;2023-03-01T13:47:03;9.93;;;3.72;;
14736;SDS011;7459;53.590;10.062;2023-03-01T13:49:47;8.13;;;4.03;;
14736;SDS011;7459;53.590;10.062;2023-03-01T13:54:59;9.73;;;4.18;;
14736;SDS011;7459;53.590;10.062;2023-03-01T13:57:36;8.20;;;3.35;;
14736;SDS011;7459;53.590;10.062;2023-03-01T14:00:06;10.18;;;3.92;;
14736;SDS011;7459;53.590;10.062;2023-03-01T14:02:58;7.90;;;3.60;;
14736;SDS011;7459;53.590;10.062;2023-03-01T14:05:37;8.38;;;3.58;;
14736;SDS011;7459;53.590;10.062;2023-03-01T14:08:04;9.18;;;3.95;;
14736;SDS011;7459;53.590;10.062;2023-03-01T14:10:44;7.75;;;3.35;;
14736;SDS011;7459;53.590;10.062;2023-03-01T14:21:49;7.55;;;2.95;;
14736;SDS011;7459;53.590;10.062;2023-03-01T14:24:48;6.72;;;3.13;;
14736;SDS011;7459;53.590;10.062;2023-03-01T14:27:28;8.30;;;3.60;;
14736;SDS011;7459;53.590;10.062;2023-03-01T14:30:01;7.80;;;3.40;;
14736;SDS011;7459;53.590;10.062;2023-03-01T14:32:51;7.68;;;3.40;;
14736;SDS011;7459;53.590;10.062;2023-03-01T14:35:24;6.72;;;3.33;;
14736;SDS011;7459;53.590;10.062;2023-03-01T14:37:52;8.35;;;3.00;;
14736;SDS011;7459;53.590;10.062;2023-03-01T14:43:21;7.43;;;3.15;;
14736;SDS011;7459;53.590;10.062;2023-03-01T14:45:49;8.70;;;3.45;;
14736;SDS011;7459;53.590;10.062;2023-03-01T14:48:16;8.15;;;3.58;;
14736;SDS011;7459;53.590;10.062;2023-03-01T14:50:43;8.35;;;3.67;;
14736;SDS011;7459;53.590;10.062;2023-03-01T14:53:23;8.27;;;3.67;;
14736;SDS011;7459;53.590;10.062;2023-03-01T14:55:53;8.40;;;3.70;;
14736;SDS011;7459;53.590;10.062;2023-03-01T14:58:22;7.47;;;3.42;;
14736;SDS011;7459;53.590;10.062;2023-03-01T15:00:51;9.57;;;3.50;;
14736;SDS011;7459;53.590;10.062;2023-03-01T15:03:41;9.18;;;3.58;;
14736;SDS011;7459;53.590;10.062;2023-03-01T15:06:10;10.70;;;3.50;;
14736;SDS011;7459;53.590;10.062;2023-03-01T15:08:41;7.40;;;3.55;;
14736;SDS011;7459;53.590;10.062;2023-03-01T15:13:38;6.75;;;3.25;;
14736;SDS011;7459;53.590;10.062;2023-03-01T15:16:09;6.85;;;2.83;;
14736;SDS011;7459;53.590;10.062;2023-03-01T15:18:51;6.70;;;2.97;;
14736;SDS011;7459;53.590;10.062;2023-03-01T15:23:55;6.00;;;2.78;;
14736;SDS011;7459;53.590;10.062;2023-03-01T15:26:44;6.53;;;3.10;;
14736;SDS011;7459;53.590;10.062;2023-03-01T15:29:23;7.30;;;2.95;;
14736;SDS011;7459;53.590;10.062;2023-03-01T15:32:23;6.53;;;2.70;;
14736;SDS011;7459;53.590;10.062;2023-03-01T15:34:51;8.63;;;3.40;;
14736;SDS011;7459;53.590;10.062;2023-03-01T15:40:21;8.20;;;2.87;;
14736;SDS011;7459;53.590;10.062;2023-03-01T15:42:56;7.85;;;3.47;;
14736;SDS011;7459;53.590;10.062;2023-03-01T15:45:27;8.50;;;3.55;;
14736;SDS011;7459;53.590;10.062;2023-03-01T15:47:55;7.60;;;3.28;;
14736;SDS011;7459;53.590;10.062;2023-03-01T15:50:27;7.03;;;2.95;;
14736;SDS011;7459;53.590;10.062;2023-03-01T15:52:59;6.70;;;2.63;;
14736;SDS011;7459;53.590;10.062;2023-03-01T15:55:30;6.00;;;2.90;;
14736;SDS011;7459;53.590;10.062;2023-03-01T15:58:14;6.85;;;2.97;;
14736;SDS011;7459;53.590;10.062;2023-03-01T16:00:44;6.85;;;2.38;;
14736;SDS011;7459;53.590;10.062;2023-03-01T16:03:12;8.27;;;2.55;;
14736;SDS011;7459;53.590;10.062;2023-03-01T16:05:38;7.87;;;3.07;;
14736;SDS011;7459;53.590;10.062;2023-03-01T16:08:04;5.93;;;2.40;;
14736;SDS011;7459;53.590;10.062;2023-03-01T16:10:31;7.13;;;2.90;;
14736;SDS011;7459;53.590;10.062;2023-03-01T16:12:58;6.23;;;2.47;;
14736;SDS011;7459;53.590;10.062;2023-03-01T16:17:55;7.57;;;2.85;;
14736;SDS011;7459;53.590;10.062;2023-03-01T16:20:23;9.02;;;2.70;;
14736;SDS011;7459;53.590;10.062;2023-03-01T16:22:50;6.90;;;2.97;;
14736;SDS011;7459;53.590;10.062;2023-03-01T16:25:17;8.13;;;3.33;;
14736;SDS011;7459;53.590;10.062;2023-03-01T16:27:45;8.90;;;3.75;;
14736;SDS011;7459;53.590;10.062;2023-03-01T16:30:17;10.00;;;4.53;;
14736;SDS011;7459;53.590;10.062;2023-03-01T16:32:46;10.93;;;4.72;;
14736;SDS011;7459;53.590;10.062;2023-03-01T16:35:14;10.85;;;5.07;;
14736;SDS011;7459;53.590;10.062;2023-03-01T16:37:43;11.23;;;5.43;;
14736;SDS011;7459;53.590;10.062;2023-03-01T16:40:16;13.02;;;5.97;;
14736;SDS011;7459;53.590;10.062;2023-03-01T16:42:47;12.88;;;5.57;;
14736;SDS011;7459;53.590;10.062;2023-03-01T16:45:13;15.40;;;6.95;;
14736;SDS011;7459;53.590;10.062;2023-03-01T16:47:39;12.70;;;5.97;;
14736;SDS011;7459;53.590;10.062;2023-03-01T16:50:05;13.43;;;6.50;;
14736;SDS011;7459;53.590;10.062;2023-03-01T16:52:31;12.90;;;6.13;;
14736;SDS011;7459;53.590;10.062;2023-03-01T16:54:58;14.57;;;6.32;;
14736;SDS011;7459;53.590;10.062;2023-03-01T16:57:23;13.07;;;5.87;;
14736;SDS011;7459;53.590;10.062;2023-03-01T16:59:52;11.82;;;5.93;;
14736;SDS011;7459;53.590;10.062;2023-03-01T17:02:18;11.85;;;5.22;;
14736;SDS011;7459;53.590;10.062;2023-03-01T17:04:44;13.77;;;5.85;;
14736;SDS011;7459;53.590;10.062;2023-03-01T17:07:16;14.52;;;6.25;;
14736;SDS011;7459;53.590;10.062;2023-03-01T17:09:42;12.95;;;5.35;;
14736;SDS011;7459;53.590;10.062;2023-03-01T17:12:08;11.23;;;4.90;;